sensor_id;sensor_type;location;lat;lon;timestamp;P1;durP1;ratioP1;P2;durP2;ratioP2
16673;SDS011;8450;52.654;10.326;2023-01-05T08:42:31;3.60;;;2.40;;
16673;SDS011;8450;52.654;10.326;2023-01-05T08:44:57;5.33;;;2.67;;
16673;SDS011;8450;52.654;10.326;2023-01-05T08:47:22;4.10;;;2.60;;
16673;SDS011;8450;52.654;10.326;2023-01-05T08:49:48;4.00;;;2.93;;
16673;SDS011;8450;52.654;10.326;2023-01-05T08:52:13;2.53;;;2.07;;
16673;SDS011;8450;52.654;10.326;2023-01-05T08:54:39;4.83;;;2.83;;
16673;SDS011;8450;52.654;10.326;2023-01-05T08:57:04;5.20;;;2.43;;
16673;SDS011;8450;52.654;10.326;2023-01-05T08:59:30;4.73;;;2.60;;
16673;SDS011;8450;52.654;10.326;2023-01-05T09:01:55;7.10;;;2.43;;
16673;SDS011;8450;52.654;10.326;2023-01-05T09:04:21;6.37;;;3.30;;
16673;SDS011;8450;52.654;10.326;2023-01-05T09:06:48;12.93;;;6.10;;
16673;SDS011;8450;52.654;10.326;2023-01-05T09:09:13;20.70;;;11.00;;
16673;SDS011;8450;52.654;10.326;2023-01-05T09:11:39;17.97;;;7.87;;
16673;SDS011;8450;52.654;10.326;2023-01-05T09:14:04;26.47;;;11.93;;
16673;SDS011;8450;52.654;10.326;2023-01-05T09:16:31;19.97;;;9.67;;
16673;SDS011;8450;52.654;10.326;2023-01-05T09:18:59;18.63;;;8.87;;
16673;SDS011;8450;52.654;10.326;2023-01-05T09:21:27;19.97;;;8.90;;
16673;SDS011;8450;52.654;10.326;2023-01-05T09:23:52;16.53;;;7.57;;
16673;SDS011;8450;52.654;10.326;2023-01-05T09:26:18;12.10;;;6.80;;
16673;SDS011;8450;52.654;10.326;2023-01-05T09:28:44;15.73;;;7.33;;
16673;SDS011;8450;52.654;10.326;2023-01-05T09:31:14;10.97;;;5.03;;
16673;SDS011;8450;52.654;10.326;2023-01-05T09:33:41;9.80;;;5.43;;
16673;SDS011;8450;52.654;10.326;2023-01-05T09:36:08;9.87;;;4.70;;
16673;SDS011;8450;52.654;10.326;2023-01-05T09:38:35;8.40;;;3.77;;
16673;SDS011;8450;52.654;10.326;2023-01-05T09:43:33;6.37;;;3.13;;
16673;SDS011;8450;52.654;10.326;2023-01-05T09:46:05;6.77;;;3.67;;
16673;SDS011;8450;52.654;10.326;2023-01-05T09:48:38;11.40;;;5.10;;
16673;SDS011;8450;52.654;10.326;2023-01-05T09:51:06;12.33;;;6.97;;
16673;SDS011;8450;52.654;10.326;2023-01-05T09:53:33;14.27;;;7.73;;
16673;SDS011;8450;52.654;10.326;2023-01-05T09:55:59;11.37;;;6.93;;
16673;SDS011;8450;52.654;10.326;2023-01-05T09:58:26;10.70;;;6.90;;
16673;SDS011;8450;52.654;10.326;2023-01-05T10:01:05;10.43;;;5.83;;
16673;SDS011;8450;52.654;10.326;2023-01-05T10:03:38;10.60;;;5.93;;
16673;SDS011;8450;52.654;10.326;2023-01-05T10:06:14;11.97;;;6.53;;
16673;SDS011;8450;52.654;10.326;2023-01-05T10:08:43;11.77;;;5.40;;
16673;SDS011;8450;52.654;10.326;2023-01-05T10:11:19;8.87;;;4.70;;
16673;SDS011;8450;52.654;10.326;2023-01-05T10:14:20;8.47;;;5.17;;
16673;SDS011;8450;52.654;10.326;2023-01-05T10:16:54;8.17;;;4.60;;
16673;SDS011;8450;52.654;10.326;2023-01-05T10:19:20;8.50;;;4.07;;
16673;SDS011;8450;52.654;10.326;2023-01-05T10:24:51;5.27;;;3.60;;
16673;SDS011;8450;52.654;10.326;2023-01-05T10:27:57;9.50;;;3.17;;
16673;SDS011;8450;52.654;10.326;2023-01-05T10:30:41;8.67;;;5.30;;
16673;SDS011;8450;52.654;10.326;2023-01-05T10:33:40;5.80;;;5.10;;
16673;SDS011;8450;52.654;10.326;2023-01-05T10:36:25;4.23;;;3.77;;
16673;SDS011;8450;52.654;10.326;2023-01-05T10:39:01;7.47;;;3.83;;
16673;SDS011;8450;52.654;10.326;2023-01-05T10:41:58;3.73;;;3.30;;
16673;SDS011;8450;52.654;10.326;2023-01-05T10:44:43;5.33;;;3.30;;
16673;SDS011;8450;52.654;10.326;2023-01-05T10:47:23;5.17;;;2.87;;
16673;SDS011;8450;52.654;10.326;2023-01-05T10:49:51;4.23;;;2.83;;
16673;SDS011;8450;52.654;10.326;2023-01-05T10:52:19;3.80;;;2.37;;
16673;SDS011;8450;52.654;10.326;2023-01-05T10:54:50;7.03;;;2.40;;
16673;SDS011;8450;52.654;10.326;2023-01-05T10:59:58;4.80;;;2.30;;
16673;SDS011;8450;52.654;10.326;2023-01-05T11:02:31;5.77;;;2.37;;
16673;SDS011;8450;52.654;10.326;2023-01-05T11:05:04;4.30;;;1.90;;
16673;SDS011;8450;52.654;10.326;2023-01-05T11:07:45;4.53;;;1.77;;
16673;SDS011;8450;52.654;10.326;2023-01-05T11:12:59;4.97;;;1.70;;
16673;SDS011;8450;52.654;10.326;2023-01-05T11:15:28;5.40;;;2.07;;
16673;SDS011;8450;52.654;10.326;2023-01-05T11:17:58;3.47;;;1.70;;
16673;SDS011;8450;52.654;10.326;2023-01-05T11:20:26;5.40;;;2.10;;
16673;SDS011;8450;52.654;10.326;2023-01-05T11:22:53;5.70;;;2.90;;
16673;SDS011;8450;52.654;10.326;2023-01-05T11:25:31;7.20;;;4.27;;
16673;SDS011;8450;52.654;10.326;2023-01-05T11:28:11;9.73;;;5.00;;
16673;SDS011;8450;52.654;10.326;2023-01-05T11:31:00;4.90;;;3.00;;
16673;SDS011;8450;52.654;10.326;2023-01-05T11:33:29;6.47;;;3.10;;
16673;SDS011;8450;52.654;10.326;2023-01-05T11:35:58;7.40;;;2.80;;
16673;SDS011;8450;52.654;10.326;2023-01-05T11:38:26;3.60;;;2.40;;
16673;SDS011;8450;52.654;10.326;2023-01-05T11:40:53;6.93;;;2.83;;
16673;SDS011;8450;52.654;10.326;2023-01-05T11:43:20;5.33;;;2.43;;
16673;SDS011;8450;52.654;10.326;2023-01-05T11:45:49;4.87;;;2.60;;
16673;SDS011;8450;52.654;10.326;2023-01-05T11:48:19;4.37;;;2.87;;
16673;SDS011;8450;52.654;10.326;2023-01-05T11:50:52;6.23;;;2.20;;
16673;SDS011;8450;52.654;10.326;2023-01-05T11:55:58;4.43;;;1.70;;
16673;SDS011;8450;52.654;10.326;2023-01-05T11:58:26;2.97;;;1.83;;
16673;SDS011;8450;52.654;10.326;2023-01-05T12:04:02;4.23;;;1.97;;
16673;SDS011;8450;52.654;10.326;2023-01-05T12:09:31;5.53;;;1.87;;
16673;SDS011;8450;52.654;10.326;2023-01-05T12:14:47;5.57;;;2.07;;
16673;SDS011;8450;52.654;10.326;2023-01-05T12:20:24;3.30;;;1.73;;
16673;SDS011;8450;52.654;10.326;2023-01-05T12:23:07;3.97;;;1.80;;
16673;SDS011;8450;52.654;10.326;2023-01-05T12:26:01;6.13;;;1.87;;
16673;SDS011;8450;52.654;10.326;2023-01-05T12:31:19;8.40;;;1.77;;
16673;SDS011;8450;52.654;10.326;2023-01-05T12:34:24;3.07;;;1.40;;
16673;SDS011;8450;52.654;10.326;2023-01-05T12:37:15;2.80;;;1.30;;
16673;SDS011;8450;52.654;10.326;2023-01-05T12:40:09;3.03;;;1.70;;
16673;SDS011;8450;52.654;10.326;2023-01-05T12:43:02;5.20;;;1.60;;
16673;SDS011;8450;52.654;10.326;2023-01-05T12:45:45;2.40;;;1.27;;
16673;SDS011;8450;52.654;10.326;2023-01-05T12:48:45;2.50;;;1.30;;
16673;SDS011;8450;52.654;10.326;2023-01-05T12:53:47;3.60;;;1.73;;
16673;SDS011;8450;52.654;10.326;2023-01-05T12:56:30;3.93;;;1.50;;
16673;SDS011;8450;52.654;10.326;2023-01-05T12:59:20;2.97;;;1.60;;
16673;SDS011;8450;52.654;10.326;2023-01-05T13:01:51;5.10;;;1.80;;
16673;SDS011;8450;52.654;10.326;2023-01-05T13:04:26;8.50;;;4.40;;
16673;SDS011;8450;52.654;10.326;2023-01-05T13:07:01;5.87;;;3.40;;
16673;SDS011;8450;52.654;10.326;2023-01-05T13:09:30;6.17;;;3.40;;
16673;SDS011;8450;52.654;10.326;2023-01-05T13:11:58;6.37;;;3.17;;
16673;SDS011;8450;52.654;10.326;2023-01-05T13:14:32;4.87;;;2.73;;
16673;SDS011;8450;52.654;10.326;2023-01-05T13:19:34;6.73;;;2.53;;
16673;SDS011;8450;52.654;10.326;2023-01-05T13:22:07;4.73;;;2.13;;
16673;SDS011;8450;52.654;10.326;2023-01-05T13:24:48;3.70;;;1.90;;
16673;SDS011;8450;52.654;10.326;2023-01-05T13:27:17;3.27;;;1.97;;
16673;SDS011;8450;52.654;10.326;2023-01-05T13:29:46;5.87;;;2.30;;
16673;SDS011;8450;52.654;10.326;2023-01-05T13:32:36;8.17;;;2.13;;
16673;SDS011;8450;52.654;10.326;2023-01-05T13:35:21;3.87;;;1.80;;
16673;SDS011;8450;52.654;10.326;2023-01-05T13:43:52;5.50;;;1.90;;
16673;SDS011;8450;52.654;10.326;2023-01-05T13:52:05;3.23;;;1.57;;
16673;SDS011;8450;52.654;10.326;2023-01-05T13:54:51;3.63;;;2.10;;
16673;SDS011;8450;52.654;10.326;2023-01-05T13:57:26;3.10;;;1.70;;
16673;SDS011;8450;52.654;10.326;2023-01-05T13:59:54;5.60;;;1.70;;
16673;SDS011;8450;52.654;10.326;2023-01-05T14:02:30;5.03;;;1.90;;
16673;SDS011;8450;52.654;10.326;2023-01-05T14:05:00;2.60;;;1.60;;
16673;SDS011;8450;52.654;10.326;2023-01-05T14:07:29;6.40;;;2.40;;
16673;SDS011;8450;52.654;10.326;2023-01-05T14:09:56;5.90;;;2.23;;
16673;SDS011;8450;52.654;10.326;2023-01-05T14:12:24;3.63;;;1.50;;
16673;SDS011;8450;52.654;10.326;2023-01-05T14:20:34;3.03;;;1.57;;
16673;SDS011;8450;52.654;10.326;2023-01-05T14:25:48;2.03;;;1.83;;
16673;SDS011;8450;52.654;10.326;2023-01-05T14:30:48;9.27;;;2.20;;
16673;SDS011;8450;52.654;10.326;2023-01-05T14:33:18;2.40;;;1.30;;
16673;SDS011;8450;52.654;10.326;2023-01-05T14:35:44;8.53;;;1.70;;
16673;SDS011;8450;52.654;10.326;2023-01-05T14:40:39;2.20;;;1.40;;
